Leota, Minnesota
Current Conditions -  °F | °C
As of 2:14 AM on Sunday 26 Oct 2014 (Local Time) from KDVP Reporting Station
Clear Clear  
Wind Chill: 41°   Ceiling: Unl
Heat Index: 41°   Visibility: 10mi
Dew Point: 30°   Wind: 0mph
Humidity: 64%   Direction: NA
Pressure: 30.03"   Gusts: NA
Location:  43.83°N, 96.01°W
Report Text: KDVP 260714Z AUTO 00000KT 10SM CLR 05/M01 A3003 RMK AO2 T00521011
Loading
Personal Weather Stations






























Interactive Weather Map
Tropical Storm Tracking
New forecast layout! Learn more

10-Day Weather Forecast

Advertisements
Track Severe Weather on mobile